La Sardane — FO4883 — position and weather

sailwx.info

Track history (hours):
 
Tides and Currents Weather Stations Pressure Air Temp Water Temp Dewpoint Dewpoint Depression Visibility Wind Speed Wind Dir Waves Ship Positions

La Sardane

Last reported at 2017-Mar-30 18:33 UTC. Time now 2017-Mar-30 18:32 UTC.
Position N 48°10' W 004°29'.

Length 16 m.

Type: Fishing. MMSI: 227318010.

Date/timePositionNaut miles runAvg speedWind from/ knotsBaromVisibWave heightAir tempDewpointWater temp
2017-Mar-30 18:33N 48°10' W 004°29'4 4.3
2017-Mar-30 17:33N 48°08' W 004°23'3 0.2
2017-Mar-29 22:19N 48°06' W 004°19'0 0.0
2017-Mar-29 21:34N 48°06' W 004°19'5 5.3
2017-Mar-29 20:34N 48°11' W 004°19'6 5.5
2017-Mar-29 19:33N 48°10' W 004°27'0 0.3
2017-Mar-29 18:34N 48°09' W 004°27'2 2.0
2017-Mar-29 17:33N 48°08' W 004°24'4 0.2
2017-Mar-28 21:27N 48°06' W 004°19'0 0.0
2017-Mar-28 20:34N 48°06' W 004°19'8 7.5
2017-Mar-28 19:33N 48°11' W 004°28'1 0.7
2017-Mar-28 18:33N 48°11' W 004°29'5 5.0
2017-Mar-28 17:33N 48°08' W 004°23'3 0.2
2017-Mar-27 20:34N 48°06' W 004°19'4 4.1
2017-Mar-27 19:34N 48°09' W 004°24'4 4.0
2017-Mar-27 18:33N 48°11' W 004°28'5 4.7
2017-Mar-27 17:33N 48°08' W 004°23'3 0.2
2017-Mar-27 02:33N 48°06' W 004°19'6 6.2
2017-Mar-27 01:34N 48°11' W 004°24'1 0.9
2017-Mar-27 00:33N 48°11' W 004°23'3 2.7
2017-Mar-26 23:33N 48°11' W 004°27'4 4.4
2017-Mar-26 22:33N 48°09' W 004°32'2 2.3
2017-Mar-26 21:34N 48°11' W 004°30'3 2.6
2017-Mar-26 20:33N 48°10' W 004°26'4 4.4
2017-Mar-26 19:33N 48°08' W 004°32'1 0.8
2017-Mar-26 18:33N 48°07' W 004°32'4 3.9
2017-Mar-26 17:33N 48°07' W 004°27'  
2017-Mar-23 20:34N 48°06' W 004°20'2 1.6
2017-Mar-23 19:33N 48°08' W 004°20'5 4.7
2017-Mar-23 18:33N 48°06' W 004°27'3 3.5
2017-Mar-23 17:34N 48°07' W 004°22'2 0.1
2017-Mar-22 21:33N 48°06' W 004°19'5 5.2
2017-Mar-22 20:34N 48°11' W 004°21'4 3.6
2017-Mar-22 19:33N 48°13' W 004°25'3 2.6
2017-Mar-22 18:34N 48°12' W 004°22'5 5.2
2017-Mar-22 17:33N 48°07' W 004°21'1 0.1
2017-Mar-21 22:06N 48°06' W 004°19'0 0.1
2017-Mar-21 21:33N 48°06' W 004°19'2 2.1
2017-Mar-21 20:33N 48°08' W 004°20'3 3.2
2017-Mar-21 19:34N 48°11' W 004°21'3 2.6
2017-Mar-21 18:33N 48°12' W 004°24'6 6.2
2017-Mar-21 17:33N 48°07' W 004°18'2 0.1
2017-Mar-20 21:33N 48°06' W 004°19'3 3.1
2017-Mar-20 20:33N 48°09' W 004°21'5 5.0
2017-Mar-20 19:33N 48°12' W 004°27'2 1.8
2017-Mar-20 18:34N 48°12' W 004°29'6 6.1
2017-Mar-20 17:34N 48°07' W 004°24'  
Track history (hours):
 
Tides and Currents Weather Stations Pressure Air Temp Water Temp Dewpoint Dewpoint Depression Visibility Wind Speed Wind Dir Waves Ship Positions

La Sardane

Last reported at 2017-Mar-30 18:33 UTC. Time now 2017-Mar-30 18:32 UTC.
Position N 48°10' W 004°29'.

Length 16 m.

Type: Fishing. MMSI: 227318010.

Date/timePositionNaut miles runAvg speedWind from/ knotsBaromVisibWave heightAir tempDewpointWater temp
2017-Mar-30 18:33N 48°10' W 004°29'4 4.3
2017-Mar-30 17:33N 48°08' W 004°23'3 0.2
2017-Mar-29 22:19N 48°06' W 004°19'0 0.0
2017-Mar-29 21:34N 48°06' W 004°19'5 5.3
2017-Mar-29 20:34N 48°11' W 004°19'6 5.5
2017-Mar-29 19:33N 48°10' W 004°27'0 0.3
2017-Mar-29 18:34N 48°09' W 004°27'2 2.0
2017-Mar-29 17:33N 48°08' W 004°24'4 0.2
2017-Mar-28 21:27N 48°06' W 004°19'0 0.0
2017-Mar-28 20:34N 48°06' W 004°19'8 7.5
2017-Mar-28 19:33N 48°11' W 004°28'1 0.7
2017-Mar-28 18:33N 48°11' W 004°29'5 5.0
2017-Mar-28 17:33N 48°08' W 004°23'3 0.2
2017-Mar-27 20:34N 48°06' W 004°19'4 4.1
2017-Mar-27 19:34N 48°09' W 004°24'4 4.0
2017-Mar-27 18:33N 48°11' W 004°28'5 4.7
2017-Mar-27 17:33N 48°08' W 004°23'3 0.2
2017-Mar-27 02:33N 48°06' W 004°19'6 6.2
2017-Mar-27 01:34N 48°11' W 004°24'1 0.9
2017-Mar-27 00:33N 48°11' W 004°23'3 2.7
2017-Mar-26 23:33N 48°11' W 004°27'4 4.4
2017-Mar-26 22:33N 48°09' W 004°32'2 2.3
2017-Mar-26 21:34N 48°11' W 004°30'3 2.6
2017-Mar-26 20:33N 48°10' W 004°26'4 4.4
2017-Mar-26 19:33N 48°08' W 004°32'1 0.8
2017-Mar-26 18:33N 48°07' W 004°32'4 3.9
2017-Mar-26 17:33N 48°07' W 004°27'  
2017-Mar-23 20:34N 48°06' W 004°20'2 1.6
2017-Mar-23 19:33N 48°08' W 004°20'5 4.7
2017-Mar-23 18:33N 48°06' W 004°27'3 3.5
2017-Mar-23 17:34N 48°07' W 004°22'2 0.1
2017-Mar-22 21:33N 48°06' W 004°19'5 5.2
2017-Mar-22 20:34N 48°11' W 004°21'4 3.6
2017-Mar-22 19:33N 48°13' W 004°25'3 2.6
2017-Mar-22 18:34N 48°12' W 004°22'5 5.2
2017-Mar-22 17:33N 48°07' W 004°21'1 0.1
2017-Mar-21 22:06N 48°06' W 004°19'0 0.1
2017-Mar-21 21:33N 48°06' W 004°19'2 2.1
2017-Mar-21 20:33N 48°08' W 004°20'3 3.2
2017-Mar-21 19:34N 48°11' W 004°21'3 2.6
2017-Mar-21 18:33N 48°12' W 004°24'6 6.2
2017-Mar-21 17:33N 48°07' W 004°18'2 0.1
2017-Mar-20 21:33N 48°06' W 004°19'3 3.1
2017-Mar-20 20:33N 48°09' W 004°21'5 5.0
2017-Mar-20 19:33N 48°12' W 004°27'2 1.8
2017-Mar-20 18:34N 48°12' W 004°29'6 6.1
2017-Mar-20 17:34N 48°07' W 004°24'  

Dump ship's entire track history